createdAt,value
2017-10-23T00:01:20.838Z,84.14
2017-10-23T00:03:48.416Z,83.93
2017-10-23T00:06:15.932Z,83.96
2017-10-23T00:08:43.416Z,84.13
2017-10-23T00:11:10.907Z,83.91
2017-10-23T00:13:38.444Z,83.92
2017-10-23T00:16:05.924Z,83.99
2017-10-23T00:18:33.408Z,84.08
2017-10-23T00:21:01.016Z,84.64
2017-10-23T00:23:28.541Z,84.14
2017-10-23T00:25:56.043Z,84.01
2017-10-23T00:28:23.600Z,84.21
2017-10-23T00:30:51.088Z,83.88
2017-10-23T00:33:18.583Z,83.52
2017-10-23T00:35:46.274Z,83.52
2017-10-23T00:38:13.840Z,83.50
2017-10-23T00:40:41.333Z,83.73
2017-10-23T00:43:09.155Z,83.41
2017-10-23T00:45:36.649Z,83.64
2017-10-23T00:48:04.133Z,83.68
2017-10-23T00:50:31.652Z,83.56
2017-10-23T00:52:59.141Z,83.67
2017-10-23T00:55:26.649Z,83.54
2017-10-23T00:57:54.185Z,84.07
2017-10-23T01:00:21.674Z,84.05
2017-10-23T01:02:49.163Z,83.92
2017-10-23T01:05:16.685Z,83.74
2017-10-23T01:07:44.180Z,83.85
2017-10-23T01:10:11.671Z,83.69
2017-10-23T01:12:39.279Z,83.74
2017-10-23T01:15:06.777Z,83.68
2017-10-23T01:17:34.268Z,83.97
2017-10-23T01:20:01.794Z,84.21
2017-10-23T01:22:29.398Z,83.79
2017-10-23T01:24:56.891Z,83.84
2017-10-23T01:27:24.422Z,83.81
2017-10-23T01:29:51.915Z,83.71
2017-10-23T01:32:19.415Z,83.73
2017-10-23T01:34:46.988Z,83.86
2017-10-23T01:37:14.483Z,83.71
2017-10-23T01:39:41.980Z,83.84
2017-10-23T01:42:09.504Z,83.83
2017-10-23T01:44:36.992Z,83.71
2017-10-23T01:47:04.476Z,83.82
2017-10-23T01:49:32.010Z,84.12
2017-10-23T01:51:59.497Z,84.16
2017-10-23T01:54:27.048Z,84.21
2017-10-23T01:56:54.588Z,84.48
2017-10-23T01:59:22.089Z,84.30
2017-10-23T02:01:49.580Z,83.85
2017-10-23T02:04:17.097Z,84.11
2017-10-23T02:06:44.746Z,83.76
2017-10-23T02:09:12.257Z,83.80
2017-10-23T02:11:39.889Z,83.70
2017-10-23T02:14:07.425Z,83.91
2017-10-23T02:16:34.983Z,83.97
2017-10-23T02:19:02.486Z,83.87
2017-10-23T02:21:30.098Z,83.93
2017-10-23T02:23:57.584Z,83.75
2017-10-23T02:26:25.111Z,83.81
2017-10-23T02:28:52.627Z,83.94
2017-10-23T02:31:20.119Z,83.52
2017-10-23T02:33:47.638Z,83.36
2017-10-23T02:36:15.134Z,83.33
2017-10-23T02:38:42.630Z,83.45
2017-10-23T02:41:10.372Z,83.51
2017-10-23T02:43:37.923Z,83.35
2017-10-23T02:46:05.413Z,83.31
2017-10-23T02:48:32.948Z,83.40
2017-10-23T02:51:00.439Z,83.61
2017-10-23T02:53:27.932Z,83.21
2017-10-23T02:55:55.464Z,83.26
2017-10-23T02:58:22.957Z,83.49
2017-10-23T03:00:50.456Z,83.50
2017-10-23T03:03:17.987Z,83.46
2017-10-23T03:05:45.474Z,83.67
2017-10-23T03:08:12.956Z,83.21
2017-10-23T03:10:40.488Z,83.69
2017-10-23T03:13:07.976Z,83.38
2017-10-23T03:15:35.474Z,83.62
2017-10-23T03:18:03.033Z,83.32
2017-10-23T03:20:30.526Z,83.34
2017-10-23T03:22:58.015Z,83.54
2017-10-23T03:25:25.632Z,83.49
2017-10-23T03:27:53.175Z,83.19
2017-10-23T03:30:20.666Z,83.44
2017-10-23T03:32:48.186Z,83.64
2017-10-23T03:35:15.693Z,83.86
2017-10-23T03:37:43.186Z,83.99
2017-10-23T03:40:10.717Z,83.98
2017-10-23T03:42:38.223Z,84.18
2017-10-23T03:45:05.717Z,84.15
2017-10-23T03:47:33.349Z,84.16
2017-10-23T03:50:00.841Z,84.03
2017-10-23T03:52:28.348Z,84.38
2017-10-23T03:54:55.908Z,84.71
2017-10-23T03:57:23.486Z,84.86
2017-10-23T03:59:50.978Z,85.04
2017-10-23T04:02:18.487Z,84.96
2017-10-23T04:04:45.979Z,85.30
2017-10-23T04:07:13.506Z,85.65
2017-10-23T04:09:40.989Z,85.86
2017-10-23T04:12:08.483Z,86.11
2017-10-23T04:14:36.036Z,86.39
2017-10-23T04:17:03.562Z,86.61
2017-10-23T04:19:31.048Z,86.82
2017-10-23T04:21:58.537Z,86.65
2017-10-23T04:24:26.053Z,86.84
2017-10-23T04:26:53.563Z,86.73
2017-10-23T04:29:21.153Z,86.88
2017-10-23T04:31:48.643Z,86.73
2017-10-23T04:34:16.138Z,86.59
2017-10-23T04:36:43.653Z,86.37
2017-10-23T04:39:11.137Z,86.06
2017-10-23T04:41:38.740Z,85.90
2017-10-23T04:44:06.293Z,85.61
2017-10-23T04:46:33.784Z,85.21
2017-10-23T04:49:01.304Z,85.21
2017-10-23T04:51:28.827Z,84.99
2017-10-23T04:53:56.319Z,84.98
2017-10-23T04:56:23.876Z,85.21
2017-10-23T04:58:51.404Z,85.35
2017-10-23T05:01:18.907Z,85.35
2017-10-23T05:03:46.400Z,85.03
2017-10-23T05:06:14.016Z,84.65
2017-10-23T05:08:41.511Z,84.61
2017-10-23T05:11:09.003Z,84.66
2017-10-23T05:13:36.531Z,84.95
2017-10-23T05:16:04.020Z,85.05
2017-10-23T05:18:31.545Z,85.13
2017-10-23T05:20:59.078Z,85.23
2017-10-23T05:23:26.572Z,85.04
2017-10-23T05:25:54.065Z,84.96
2017-10-23T05:28:21.638Z,84.78
2017-10-23T05:30:49.127Z,84.79
2017-10-23T05:33:16.675Z,84.57
2017-10-23T05:35:44.233Z,84.36
2017-10-23T05:38:11.719Z,84.90
2017-10-23T05:40:39.245Z,84.87
2017-10-23T05:43:06.737Z,85.24
2017-10-23T05:45:34.233Z,85.23
2017-10-23T05:48:01.772Z,85.02
2017-10-23T05:50:29.282Z,84.57
2017-10-23T05:52:56.776Z,84.68
2017-10-23T05:55:24.299Z,84.72
2017-10-23T05:57:51.789Z,85.23
2017-10-23T06:00:19.276Z,85.42
2017-10-23T06:02:46.811Z,85.39
2017-10-23T06:05:14.323Z,85.24
2017-10-23T06:07:41.837Z,85.22
2017-10-23T06:10:09.331Z,84.95
2017-10-23T06:12:37.001Z,84.72
2017-10-23T06:15:04.495Z,84.16
2017-10-23T06:17:32.007Z,84.39
2017-10-23T06:19:59.539Z,84.01
2017-10-23T06:22:27.132Z,84.13
2017-10-23T06:24:54.630Z,84.21
2017-10-23T06:27:22.145Z,83.89
2017-10-23T06:29:49.673Z,83.85
2017-10-23T06:32:17.173Z,83.27
2017-10-23T06:34:44.712Z,83.03
2017-10-23T06:37:12.210Z,83.05
2017-10-23T06:39:39.705Z,82.55
2017-10-23T06:42:07.508Z,82.53
2017-10-23T06:44:35.061Z,82.24
2017-10-23T06:47:02.618Z,82.46
2017-10-23T06:49:30.271Z,82.14
2017-10-23T06:51:57.772Z,82.35
2017-10-23T06:54:25.265Z,82.31
2017-10-23T06:56:52.957Z,82.18
2017-10-23T06:59:20.538Z,81.92
2017-10-23T07:01:48.037Z,81.99
2017-10-23T07:04:15.572Z,81.82
2017-10-23T07:06:43.161Z,81.86
2017-10-23T07:09:10.763Z,82.25
2017-10-23T07:11:38.353Z,82.45
2017-10-23T07:14:05.845Z,82.93
2017-10-23T07:16:33.440Z,83.19
2017-10-23T07:19:00.996Z,84.15
2017-10-23T07:21:28.532Z,84.90
2017-10-23T07:23:56.030Z,84.84
2017-10-23T07:26:23.699Z,85.67
2017-10-23T07:28:51.216Z,85.62
2017-10-23T07:31:18.706Z,85.49
2017-10-23T07:33:46.248Z,85.70
2017-10-23T07:36:13.741Z,85.51
2017-10-23T07:38:41.233Z,85.43
2017-10-23T07:41:09.247Z,84.81
2017-10-23T07:43:36.739Z,84.56
2017-10-23T07:46:04.234Z,83.27
2017-10-23T07:48:31.754Z,83.81
2017-10-23T07:50:59.255Z,83.09
2017-10-23T07:53:26.906Z,83.18
2017-10-23T07:55:54.404Z,83.08
2017-10-23T07:58:21.948Z,82.15
2017-10-23T08:00:49.506Z,81.79
2017-10-23T08:03:17.004Z,81.21
2017-10-23T08:05:44.500Z,80.93
2017-10-23T08:08:12.015Z,80.06
2017-10-23T08:13:13.327Z,80.24
2017-10-23T08:15:40.828Z,80.60
2017-10-23T08:18:08.321Z,80.32
2017-10-23T08:20:35.853Z,80.40
2017-10-23T08:23:03.348Z,80.66
2017-10-23T08:25:30.840Z,80.99
2017-10-23T08:27:58.386Z,80.95
2017-10-23T08:30:25.884Z,81.16
2017-10-23T08:32:53.372Z,80.59
2017-10-23T08:35:20.914Z,79.85
2017-10-23T08:37:48.444Z,80.05
2017-10-23T08:40:15.934Z,79.05
2017-10-23T08:42:43.442Z,79.10
2017-10-23T08:45:10.966Z,79.69
2017-10-23T08:47:38.460Z,79.54
2017-10-23T08:50:06.000Z,79.26
2017-10-23T08:52:33.493Z,79.26
2017-10-23T08:55:01.000Z,79.87
2017-10-23T08:57:28.529Z,80.17
2017-10-23T08:59:56.018Z,80.68
2017-10-23T09:02:23.512Z,81.66
2017-10-23T09:04:51.068Z,82.96
2017-10-23T09:07:18.572Z,83.65
2017-10-23T09:09:46.063Z,82.71
2017-10-23T09:12:13.706Z,82.78
2017-10-23T09:14:41.198Z,82.56
2017-10-23T09:17:08.691Z,81.79
2017-10-23T09:19:36.212Z,81.41
2017-10-23T09:22:03.742Z,80.87
2017-10-23T09:24:31.278Z,81.80
2017-10-23T09:26:58.765Z,81.75
2017-10-23T09:29:26.293Z,81.62
2017-10-23T09:31:53.840Z,81.63
2017-10-23T09:34:21.336Z,83.27
2017-10-23T09:36:48.843Z,84.01
2017-10-23T09:39:16.379Z,84.37
2017-10-23T09:41:43.879Z,84.93
2017-10-23T09:44:11.421Z,84.99
2017-10-23T09:46:38.911Z,85.52
2017-10-23T09:49:06.400Z,86.07
2017-10-23T09:51:33.944Z,86.57
2017-10-23T09:54:01.440Z,86.10
2017-10-23T09:56:28.941Z,86.23
2017-10-23T09:58:56.455Z,86.24
2017-10-23T10:01:23.939Z,86.85
2017-10-23T10:03:51.467Z,86.28
2017-10-23T10:06:19.076Z,87.13
2017-10-23T10:08:46.568Z,87.17
2017-10-23T10:11:14.115Z,87.76
2017-10-23T10:13:41.604Z,87.98
2017-10-23T10:16:09.100Z,86.91
2017-10-23T10:18:36.619Z,87.30
2017-10-23T10:21:04.119Z,87.51
2017-10-23T10:23:31.606Z,87.21
2017-10-23T10:25:59.149Z,87.29
2017-10-23T10:28:26.644Z,86.72
2017-10-23T10:30:54.132Z,86.64
2017-10-23T10:33:21.668Z,87.22
2017-10-23T10:35:49.163Z,86.79
2017-10-23T10:38:16.654Z,86.47
2017-10-23T10:40:44.172Z,86.50
2017-10-23T10:43:11.667Z,85.30
2017-10-23T10:45:39.168Z,86.07
2017-10-23T10:48:06.699Z,85.39
2017-10-23T10:50:34.190Z,84.74
2017-10-23T10:53:01.679Z,84.89
2017-10-23T10:55:29.206Z,83.52
2017-10-23T10:57:56.690Z,84.06
2017-10-23T11:00:24.173Z,83.73
2017-10-23T11:02:51.697Z,83.35
2017-10-23T11:05:19.189Z,84.26
2017-10-23T11:07:46.680Z,84.62
2017-10-23T11:10:14.208Z,85.48
2017-10-23T11:12:41.691Z,85.85
2017-10-23T11:15:10.007Z,85.89
2017-10-23T11:17:37.512Z,86.85
2017-10-23T11:20:04.998Z,86.08
2017-10-23T11:22:32.513Z,86.67
2017-10-23T11:25:00.014Z,86.32
2017-10-23T11:27:27.492Z,86.08
2017-10-23T11:29:55.019Z,85.26
2017-10-23T11:32:22.508Z,84.97
2017-10-23T11:34:49.993Z,85.21
2017-10-23T11:37:17.527Z,85.19
2017-10-23T11:39:45.017Z,85.16
2017-10-23T11:42:12.507Z,84.64
2017-10-23T11:44:40.017Z,83.94
2017-10-23T11:47:07.505Z,84.24
2017-10-23T11:49:35.017Z,84.20
2017-10-23T11:52:02.504Z,84.38
2017-10-23T11:54:30.031Z,84.46
2017-10-23T11:56:57.511Z,84.07
2017-10-23T11:59:24.995Z,84.06
2017-10-23T12:01:52.542Z,85.07
2017-10-23T12:04:20.031Z,84.31
2017-10-23T12:06:47.519Z,84.29
2017-10-23T12:09:15.044Z,84.62
2017-10-23T12:11:42.533Z,83.16
2017-10-23T12:14:10.014Z,83.57
2017-10-23T12:16:37.560Z,83.98
2017-10-23T12:19:05.049Z,83.98
2017-10-23T12:21:32.546Z,84.16
2017-10-23T12:24:00.069Z,84.09
2017-10-23T12:26:27.549Z,84.30
2017-10-23T12:28:55.183Z,84.76
2017-10-23T12:31:22.675Z,85.59
2017-10-23T12:33:50.161Z,86.33
2017-10-23T12:36:17.676Z,86.18
2017-10-23T12:38:45.164Z,86.67
2017-10-23T12:41:12.658Z,86.49
2017-10-23T12:43:40.170Z,86.16
2017-10-23T12:46:07.667Z,87.59
2017-10-23T12:48:35.192Z,87.35
2017-10-23T12:51:02.682Z,87.70
2017-10-23T12:53:30.164Z,87.92
2017-10-23T12:55:57.679Z,87.97
2017-10-23T12:58:25.186Z,89.06
2017-10-23T13:00:52.720Z,89.69
2017-10-23T13:03:20.211Z,89.66
2017-10-23T13:05:47.707Z,89.84
2017-10-23T13:08:15.219Z,89.42
2017-10-23T13:10:42.751Z,90.09
2017-10-23T13:13:10.240Z,88.54
2017-10-23T13:15:37.737Z,88.55
2017-10-23T13:18:05.256Z,87.96
2017-10-23T13:20:32.781Z,87.86
2017-10-23T13:23:00.281Z,87.48
2017-10-23T13:25:27.795Z,87.21
2017-10-23T13:27:55.337Z,87.40
2017-10-23T13:30:22.833Z,87.93
2017-10-23T13:32:50.339Z,87.40
2017-10-23T13:35:17.864Z,87.53
2017-10-23T13:37:45.367Z,87.38
2017-10-23T13:40:12.882Z,87.83
2017-10-23T13:42:40.396Z,87.46
2017-10-23T13:45:07.895Z,87.08
2017-10-23T13:47:35.410Z,87.29
2017-10-23T13:50:02.906Z,87.85
2017-10-23T13:52:30.399Z,87.39
2017-10-23T13:54:57.935Z,86.97
2017-10-23T13:57:25.423Z,86.30
2017-10-23T13:59:52.907Z,86.07
2017-10-23T14:02:20.436Z,86.48
2017-10-23T14:04:47.924Z,85.95
2017-10-23T14:07:15.433Z,86.12
2017-10-23T14:09:43.014Z,85.40
2017-10-23T14:12:10.507Z,85.17
2017-10-23T14:14:37.996Z,85.42
2017-10-23T14:17:05.546Z,85.36
2017-10-23T14:19:33.059Z,85.97
2017-10-23T14:22:00.617Z,85.54
2017-10-23T14:24:28.159Z,84.47
2017-10-23T14:26:55.653Z,84.09
2017-10-23T14:29:23.155Z,83.50
2017-10-23T14:31:50.684Z,84.12
2017-10-23T14:34:18.194Z,84.52
2017-10-23T14:36:45.690Z,84.70
2017-10-23T14:39:13.201Z,83.95
2017-10-23T14:41:41.136Z,85.07
2017-10-23T14:44:08.672Z,84.12
2017-10-23T14:46:36.160Z,84.67
2017-10-23T14:49:03.653Z,83.89
2017-10-23T14:51:31.187Z,84.03
2017-10-23T14:53:58.684Z,83.65
2017-10-23T14:56:26.186Z,83.08
2017-10-23T14:58:53.715Z,83.04
2017-10-23T15:01:21.203Z,83.02
2017-10-23T15:03:48.691Z,82.82
2017-10-23T15:06:16.228Z,81.58
2017-10-23T15:08:43.719Z,82.28
2017-10-23T15:11:11.213Z,82.24
2017-10-23T15:13:38.748Z,82.37
2017-10-23T15:16:06.244Z,82.52
2017-10-23T15:18:33.738Z,82.25
2017-10-23T15:21:01.259Z,83.07
2017-10-23T15:23:28.752Z,83.12
2017-10-23T15:25:56.263Z,83.48
2017-10-23T15:28:23.759Z,83.97
2017-10-23T15:30:51.297Z,83.79
2017-10-23T15:33:18.802Z,83.63
2017-10-23T15:35:46.291Z,84.00
2017-10-23T15:38:13.810Z,84.34
2017-10-23T15:40:41.460Z,84.14
2017-10-23T15:43:08.965Z,84.07
2017-10-23T15:45:36.464Z,84.47
2017-10-23T15:48:03.988Z,84.40
2017-10-23T15:50:31.528Z,84.46
2017-10-23T15:52:59.027Z,84.85
2017-10-23T15:55:26.515Z,84.99
2017-10-23T15:57:54.063Z,84.47
2017-10-23T16:00:21.552Z,84.77
2017-10-23T16:02:49.048Z,84.62
2017-10-23T16:05:16.583Z,84.71
2017-10-23T16:07:44.077Z,85.33
2017-10-23T16:10:11.603Z,85.97
2017-10-23T16:12:39.098Z,86.19
2017-10-23T16:15:06.596Z,86.32
2017-10-23T16:17:34.117Z,86.78
2017-10-23T16:20:01.640Z,86.90
2017-10-23T16:22:29.135Z,87.63
2017-10-23T16:24:56.647Z,87.95
2017-10-23T16:27:24.180Z,88.05
2017-10-23T16:29:51.827Z,88.05
2017-10-23T16:32:19.328Z,87.72
2017-10-23T16:34:46.839Z,88.17
2017-10-23T16:37:14.371Z,88.13
2017-10-23T16:39:41.854Z,88.00
2017-10-23T16:42:09.348Z,88.14
2017-10-23T16:44:36.859Z,87.76
2017-10-23T16:47:04.345Z,87.95
2017-10-23T16:49:31.988Z,87.46
2017-10-23T16:51:59.511Z,87.28
2017-10-23T16:54:27.002Z,87.21
2017-10-23T16:56:54.543Z,86.86
2017-10-23T16:59:22.045Z,86.93
2017-10-23T17:01:49.543Z,86.98
2017-10-23T17:04:17.051Z,86.70
2017-10-23T17:06:44.544Z,86.75
2017-10-23T17:09:12.068Z,86.29
2017-10-23T17:11:39.569Z,85.67
2017-10-23T17:14:07.065Z,85.67
2017-10-23T17:16:34.598Z,85.57
2017-10-23T17:19:02.092Z,85.94
2017-10-23T17:21:29.582Z,85.69
2017-10-23T17:23:57.223Z,85.62
2017-10-23T17:26:24.783Z,85.54
2017-10-23T17:28:52.276Z,86.21
2017-10-23T17:31:19.832Z,85.99
2017-10-23T17:33:47.330Z,85.80
2017-10-23T17:36:14.850Z,85.89
2017-10-23T17:38:42.345Z,86.03
2017-10-23T17:41:09.852Z,85.80
2017-10-23T17:43:37.401Z,86.35
2017-10-23T17:46:04.895Z,86.15
2017-10-23T17:48:32.388Z,86.77
2017-10-23T17:50:59.932Z,86.34
2017-10-23T17:53:27.423Z,86.27
2017-10-23T17:55:54.922Z,86.33
2017-10-23T17:58:22.475Z,86.15
2017-10-23T18:00:49.965Z,86.60
2017-10-23T18:03:17.459Z,86.03
2017-10-23T18:05:45.047Z,86.54
2017-10-23T18:08:12.537Z,86.39
2017-10-23T18:10:40.025Z,86.56
2017-10-23T18:13:07.549Z,86.25
2017-10-23T18:15:35.052Z,86.66
2017-10-23T18:18:02.549Z,86.46
2017-10-23T18:20:30.178Z,86.62
2017-10-23T18:22:57.677Z,86.63
2017-10-23T18:25:25.179Z,86.71
2017-10-23T18:27:52.706Z,86.87
2017-10-23T18:30:20.198Z,87.23
2017-10-23T18:32:47.696Z,87.58
2017-10-23T18:35:15.341Z,87.37
2017-10-23T18:37:42.833Z,87.73
2017-10-23T18:40:10.326Z,87.97
2017-10-23T18:42:37.851Z,88.01
2017-10-23T18:45:05.355Z,88.03
2017-10-23T18:47:32.850Z,88.23
2017-10-23T18:50:00.404Z,88.48
2017-10-23T18:52:27.910Z,88.43
2017-10-23T18:54:55.408Z,88.06
2017-10-23T18:57:22.945Z,88.04
2017-10-23T18:59:50.440Z,87.93
2017-10-23T19:02:17.933Z,87.72
2017-10-23T19:04:45.456Z,87.42
2017-10-23T19:07:12.984Z,87.69
2017-10-23T19:09:40.472Z,87.67
2017-10-23T19:12:07.973Z,87.51
2017-10-23T19:14:35.499Z,87.82
2017-10-23T19:17:03.004Z,88.03
2017-10-23T19:19:30.535Z,88.07
2017-10-23T19:21:58.028Z,87.81
2017-10-23T19:24:25.520Z,87.96
2017-10-23T19:26:53.043Z,87.85
2017-10-23T19:29:20.552Z,87.94
2017-10-23T19:31:48.099Z,87.73
2017-10-23T19:34:15.594Z,87.66
2017-10-23T19:36:43.093Z,87.87
2017-10-23T19:39:10.657Z,87.96
2017-10-23T19:41:38.155Z,87.71
2017-10-23T19:44:05.654Z,87.85
2017-10-23T19:46:33.179Z,87.49
2017-10-23T19:49:00.678Z,87.59
2017-10-23T19:51:28.166Z,87.16
2017-10-23T19:53:55.706Z,87.46
2017-10-23T19:56:23.200Z,87.18
2017-10-23T19:58:50.694Z,86.87
2017-10-23T20:01:18.235Z,87.11
2017-10-23T20:03:45.732Z,86.61
2017-10-23T20:06:13.223Z,86.99
2017-10-23T20:08:40.760Z,86.97
2017-10-23T20:11:08.271Z,86.91
2017-10-23T20:13:35.769Z,87.08
2017-10-23T20:16:03.320Z,86.71
2017-10-23T20:18:30.832Z,86.92
2017-10-23T20:20:58.322Z,87.23
2017-10-23T20:23:25.852Z,87.16
2017-10-23T20:25:53.350Z,87.37
2017-10-23T20:28:20.986Z,87.16
2017-10-23T20:30:48.481Z,86.78
2017-10-23T20:33:15.975Z,87.06
2017-10-23T20:35:43.505Z,87.37
2017-10-23T20:38:11.004Z,87.63
2017-10-23T20:40:38.492Z,87.82
2017-10-23T20:43:06.140Z,88.24
2017-10-23T20:45:33.638Z,88.07
2017-10-23T20:48:01.131Z,88.41
2017-10-23T20:50:28.654Z,89.01
2017-10-23T20:52:56.144Z,88.48
2017-10-23T20:55:23.639Z,88.42
2017-10-23T20:57:51.164Z,88.52
2017-10-23T21:00:18.657Z,88.98
2017-10-23T21:02:46.188Z,89.21
2017-10-23T21:05:13.679Z,89.96
2017-10-23T21:07:41.172Z,89.79
2017-10-23T21:10:08.684Z,89.77
2017-10-23T21:12:36.183Z,89.98
2017-10-23T21:15:03.720Z,90.62
2017-10-23T21:17:31.219Z,90.90
2017-10-23T21:19:58.710Z,90.97
2017-10-23T21:22:26.339Z,90.88
2017-10-23T21:24:53.835Z,91.05
2017-10-23T21:27:21.324Z,91.21
2017-10-23T21:29:48.909Z,91.44
2017-10-23T21:32:16.408Z,91.38
2017-10-23T21:34:43.903Z,91.17
2017-10-23T21:37:11.492Z,91.23
2017-10-23T21:39:38.983Z,91.54
2017-10-23T21:42:06.477Z,91.60
2017-10-23T21:44:33.996Z,91.68
2017-10-23T21:47:10.105Z,91.75
2017-10-23T21:49:37.605Z,91.87
2017-10-23T21:52:05.098Z,92.10
2017-10-23T21:54:32.738Z,92.09
2017-10-23T21:57:00.230Z,92.43
2017-10-23T21:59:27.718Z,92.43
2017-10-23T22:01:55.230Z,92.40
2017-10-23T22:04:22.754Z,92.88
2017-10-23T22:06:50.253Z,92.78
2017-10-23T22:11:51.463Z,92.42
2017-10-23T22:14:18.947Z,92.33
2017-10-23T22:16:46.441Z,92.24
2017-10-23T22:19:14.081Z,92.41
2017-10-23T22:21:42.257Z,92.34
2017-10-23T22:24:09.738Z,92.55
2017-10-23T22:26:37.280Z,92.93
2017-10-23T22:29:04.790Z,93.18
2017-10-23T22:31:32.290Z,93.10
2017-10-23T22:33:59.838Z,93.12
2017-10-23T22:36:27.329Z,92.92
2017-10-23T22:38:54.815Z,92.78
2017-10-23T22:41:22.352Z,93.05
2017-10-23T22:43:49.836Z,92.96
2017-10-23T22:46:17.323Z,93.01
2017-10-23T22:48:44.833Z,93.05
2017-10-23T22:51:12.317Z,92.96
2017-10-23T22:53:39.844Z,93.08
2017-10-23T22:56:07.358Z,93.08
2017-10-23T22:58:34.850Z,93.30
2017-10-23T23:01:02.383Z,93.44
2017-10-23T23:03:29.876Z,93.08
2017-10-23T23:05:57.364Z,93.14
2017-10-23T23:08:24.886Z,93.36
2017-10-23T23:10:52.382Z,92.93
2017-10-23T23:13:19.869Z,92.84
2017-10-23T23:15:47.391Z,93.14
2017-10-23T23:18:14.885Z,93.20
2017-10-23T23:20:42.380Z,93.06
2017-10-23T23:23:09.892Z,93.07
2017-10-23T23:25:37.385Z,93.26
2017-10-23T23:30:38.649Z,93.50
2017-10-23T23:33:06.277Z,93.49
2017-10-23T23:35:33.763Z,93.34
2017-10-23T23:38:01.259Z,93.37
2017-10-23T23:40:28.812Z,93.50
2017-10-23T23:42:56.299Z,93.45
2017-10-23T23:45:23.791Z,93.47
2017-10-23T23:47:51.310Z,93.52
2017-10-23T23:50:18.793Z,93.57
2017-10-23T23:52:46.285Z,93.41
2017-10-23T23:55:13.912Z,93.26
2017-10-23T23:57:41.395Z,93.37
